McLean, Nebraska
Current Conditions -  °F | °C
As of 8:15 AM on Saturday 20 Dec 2014 (Local Time) from KLCG Reporting Station
Overcast Overcast  
Wind Chill: -4°   Ceiling: 500
Heat Index:   Visibility: 7mi
Dew Point: -1°   Wind: 8mph
Humidity: 94%   Direction: 200°SSW
Pressure: 30.08"   Gusts: NA
Location:  42.39°N, 97.47°W
Report Text: KLCG 201415Z AUTO 20007KT 7SM OVC005 00/M01 A3008 RMK AO2 T00001008
Loading
Personal Weather Stations






























Interactive Weather Map New forecast layout! Learn more

10-Day Weather Forecast

Advertisements
Track Severe Weather on mobile